sensor_id;sensor_type;location;lat;lon;timestamp;pressure;altitude;pressure_sealevel;temperature;humidity
25658;BME280;13517;59.320;18.042;2023-05-23T00:01:33;101160.81;;;11.07;75.33
25658;BME280;13517;59.320;18.042;2023-05-23T00:04:01;101174.84;;;11.14;76.27
25658;BME280;13517;59.320;18.042;2023-05-23T00:06:27;101170.66;;;11.08;76.26
25658;BME280;13517;59.320;18.042;2023-05-23T00:08:53;101206.66;;;11.25;76.69
25658;BME280;13517;59.320;18.042;2023-05-23T00:11:18;101127.59;;;10.74;76.55
25658;BME280;13517;59.320;18.042;2023-05-23T00:13:44;101204.22;;;11.20;77.12
25658;BME280;13517;59.320;18.042;2023-05-23T00:16:10;101152.16;;;10.86;77.35
25658;BME280;13517;59.320;18.042;2023-05-23T00:18:36;101118.88;;;10.69;76.98
25658;BME280;13517;59.320;18.042;2023-05-23T00:21:01;101192.03;;;11.13;77.09
25658;BME280;13517;59.320;18.042;2023-05-23T00:23:28;101194.81;;;11.11;77.85
25658;BME280;13517;59.320;18.042;2023-05-23T00:25:54;101134.75;;;10.75;77.48
25658;BME280;13517;59.320;18.042;2023-05-23T00:28:21;101195.19;;;11.05;77.70
25658;BME280;13517;59.320;18.042;2023-05-23T00:30:47;101190.91;;;11.01;77.94
25658;BME280;13517;59.320;18.042;2023-05-23T00:33:16;101151.75;;;10.78;78.25
25658;BME280;13517;59.320;18.042;2023-05-23T00:35:41;101156.34;;;10.75;78.28
25658;BME280;13517;59.320;18.042;2023-05-23T00:38:07;101181.34;;;10.95;78.53
25658;BME280;13517;59.320;18.042;2023-05-23T00:40:33;101142.84;;;10.75;79.12
25658;BME280;13517;59.320;18.042;2023-05-23T00:42:59;101180.47;;;10.95;79.14
25658;BME280;13517;59.320;18.042;2023-05-23T00:45:25;101145.47;;;10.77;79.25
25658;BME280;13517;59.320;18.042;2023-05-23T00:47:51;101137.91;;;10.68;79.24
25658;BME280;13517;59.320;18.042;2023-05-23T00:50:17;101177.25;;;10.88;79.62
25658;BME280;13517;59.320;18.042;2023-05-23T00:52:44;101169.22;;;10.86;80.42
25658;BME280;13517;59.320;18.042;2023-05-23T00:55:11;101143.66;;;10.61;80.58
25658;BME280;13517;59.320;18.042;2023-05-23T00:57:37;101150.53;;;10.67;80.04
25658;BME280;13517;59.320;18.042;2023-05-23T01:00:09;101153.25;;;10.67;80.34
25658;BME280;13517;59.320;18.042;2023-05-23T01:02:39;101125.97;;;10.56;80.14
25658;BME280;13517;59.320;18.042;2023-05-23T01:05:08;101137.38;;;10.61;80.41
25658;BME280;13517;59.320;18.042;2023-05-23T01:07:34;101144.28;;;10.67;80.46
25658;BME280;13517;59.320;18.042;2023-05-23T01:10:00;101137.38;;;10.61;80.53
25658;BME280;13517;59.320;18.042;2023-05-23T01:12:31;101173.94;;;10.83;80.19
25658;BME280;13517;59.320;18.042;2023-05-23T01:15:30;101165.16;;;10.79;80.83
25658;BME280;13517;59.320;18.042;2023-05-23T01:18:09;101143.19;;;10.69;80.11
25658;BME280;13517;59.320;18.042;2023-05-23T01:20:56;101133.72;;;10.62;80.32
25658;BME280;13517;59.320;18.042;2023-05-23T01:29:06;101159.31;;;10.87;80.07
25658;BME280;13517;59.320;18.042;2023-05-23T01:31:36;101159.09;;;10.90;79.96
25658;BME280;13517;59.320;18.042;2023-05-23T01:34:04;101157.91;;;10.96;80.45
25658;BME280;13517;59.320;18.042;2023-05-23T01:36:32;101155.28;;;10.94;79.93
25658;BME280;13517;59.320;18.042;2023-05-23T01:38:59;101157.22;;;10.92;80.07
25658;BME280;13517;59.320;18.042;2023-05-23T01:41:25;101147.72;;;10.85;79.79
25658;BME280;13517;59.320;18.042;2023-05-23T01:43:50;101089.47;;;10.48;79.64
25658;BME280;13517;59.320;18.042;2023-05-23T01:46:16;101128.75;;;10.70;79.70
25658;BME280;13517;59.320;18.042;2023-05-23T01:48:42;101142.06;;;10.73;78.95
25658;BME280;13517;59.320;18.042;2023-05-23T01:51:10;101121.44;;;10.56;78.67
25658;BME280;13517;59.320;18.042;2023-05-23T01:53:35;101160.56;;;10.81;78.95
25658;BME280;13517;59.320;18.042;2023-05-23T01:56:01;101114.56;;;10.51;78.30
25658;BME280;13517;59.320;18.042;2023-05-23T01:58:28;101132.78;;;10.63;78.36
25658;BME280;13517;59.320;18.042;2023-05-23T02:00:54;101118.81;;;10.55;78.72
25658;BME280;13517;59.320;18.042;2023-05-23T02:03:20;101120.56;;;10.56;78.31
25658;BME280;13517;59.320;18.042;2023-05-23T02:05:45;101121.38;;;10.58;78.15
25658;BME280;13517;59.320;18.042;2023-05-23T02:08:11;101123.94;;;10.59;78.65
25658;BME280;13517;59.320;18.042;2023-05-23T02:10:36;101139.44;;;10.72;78.33
25658;BME280;13517;59.320;18.042;2023-05-23T02:13:02;101102.03;;;10.49;78.14
25658;BME280;13517;59.320;18.042;2023-05-23T02:15:27;101102.03;;;10.49;77.73
25658;BME280;13517;59.320;18.042;2023-05-23T02:17:53;101119.34;;;10.61;77.20
25658;BME280;13517;59.320;18.042;2023-05-23T02:20:18;101115.41;;;10.67;76.77
25658;BME280;13517;59.320;18.042;2023-05-23T02:22:44;101100.34;;;10.63;76.30
25658;BME280;13517;59.320;18.042;2023-05-23T02:25:09;101081.81;;;10.57;75.88
25658;BME280;13517;59.320;18.042;2023-05-23T02:27:35;101125.91;;;10.88;76.30
25658;BME280;13517;59.320;18.042;2023-05-23T02:30:00;101099.84;;;10.87;76.05
25658;BME280;13517;59.320;18.042;2023-05-23T02:32:26;101110.88;;;10.98;75.87
25658;BME280;13517;59.320;18.042;2023-05-23T02:34:51;101106.06;;;11.03;75.32
25658;BME280;13517;59.320;18.042;2023-05-23T02:37:16;101093.69;;;10.99;75.07
25658;BME280;13517;59.320;18.042;2023-05-23T02:39:42;101138.00;;;11.42;75.39
25658;BME280;13517;59.320;18.042;2023-05-23T02:42:08;101139.44;;;11.48;75.23
25658;BME280;13517;59.320;18.042;2023-05-23T02:44:33;101133.38;;;11.58;75.06
25658;BME280;13517;59.320;18.042;2023-05-23T02:46:59;101103.41;;;11.47;75.74
25658;BME280;13517;59.320;18.042;2023-05-23T02:49:24;101096.94;;;11.50;76.27
25658;BME280;13517;59.320;18.042;2023-05-23T02:51:50;101127.19;;;11.71;76.76
25658;BME280;13517;59.320;18.042;2023-05-23T02:54:15;101077.03;;;11.36;77.73
25658;BME280;13517;59.320;18.042;2023-05-23T02:56:41;101121.97;;;11.68;78.68
25658;BME280;13517;59.320;18.042;2023-05-23T02:59:06;101000.81;;;11.00;79.10
25658;BME280;13517;59.320;18.042;2023-05-23T03:01:31;101112.59;;;11.74;79.72
25658;BME280;13517;59.320;18.042;2023-05-23T03:03:57;101112.69;;;11.72;80.26
25658;BME280;13517;59.320;18.042;2023-05-23T03:06:22;101054.31;;;11.39;80.73
25658;BME280;13517;59.320;18.042;2023-05-23T03:08:48;101109.41;;;11.67;81.58
25658;BME280;13517;59.320;18.042;2023-05-23T03:11:13;101061.97;;;11.47;81.57
25658;BME280;13517;59.320;18.042;2023-05-23T03:13:39;101030.75;;;11.26;82.16
25658;BME280;13517;59.320;18.042;2023-05-23T03:16:04;101104.19;;;11.64;82.62
25658;BME280;13517;59.320;18.042;2023-05-23T03:18:30;101086.31;;;11.47;83.18
25658;BME280;13517;59.320;18.042;2023-05-23T03:20:55;101087.97;;;11.49;83.94
25658;BME280;13517;59.320;18.042;2023-05-23T03:23:21;101097.44;;;11.56;84.26
25658;BME280;13517;59.320;18.042;2023-05-23T03:25:48;101057.63;;;11.29;84.54
25658;BME280;13517;59.320;18.042;2023-05-23T03:28:13;101056.72;;;11.29;85.60
25658;BME280;13517;59.320;18.042;2023-05-23T03:30:39;101083.53;;;11.48;86.11
25658;BME280;13517;59.320;18.042;2023-05-23T03:33:04;101049.41;;;11.31;86.60
25658;BME280;13517;59.320;18.042;2023-05-23T03:35:31;101052.69;;;11.36;87.03
25658;BME280;13517;59.320;18.042;2023-05-23T03:37:56;101075.97;;;11.53;87.34
25658;BME280;13517;59.320;18.042;2023-05-23T03:40:21;101005.19;;;11.17;87.77
25658;BME280;13517;59.320;18.042;2023-05-23T03:42:47;101073.63;;;11.62;88.53
25658;BME280;13517;59.320;18.042;2023-05-23T03:45:13;101055.00;;;11.57;88.48
25658;BME280;13517;59.320;18.042;2023-05-23T03:47:39;101048.50;;;11.60;88.75
25658;BME280;13517;59.320;18.042;2023-05-23T03:50:05;101042.34;;;11.57;89.31
25658;BME280;13517;59.320;18.042;2023-05-23T03:52:31;101065.78;;;11.86;89.85
25658;BME280;13517;59.320;18.042;2023-05-23T03:54:56;101044.31;;;11.83;90.09
25658;BME280;13517;59.320;18.042;2023-05-23T03:57:21;101048.06;;;11.95;89.75
25658;BME280;13517;59.320;18.042;2023-05-23T03:59:47;100978.34;;;11.71;89.72
25658;BME280;13517;59.320;18.042;2023-05-23T04:02:12;101005.72;;;11.94;89.15
25658;BME280;13517;59.320;18.042;2023-05-23T04:04:38;101054.44;;;12.36;89.76
25658;BME280;13517;59.320;18.042;2023-05-23T04:07:04;101029.28;;;12.34;89.82
25658;BME280;13517;59.320;18.042;2023-05-23T04:09:29;101005.78;;;12.34;89.54
25658;BME280;13517;59.320;18.042;2023-05-23T04:11:55;101018.63;;;12.45;89.91
25658;BME280;13517;59.320;18.042;2023-05-23T04:14:20;101022.16;;;12.46;90.44
25658;BME280;13517;59.320;18.042;2023-05-23T04:16:46;101047.69;;;12.69;90.45
25658;BME280;13517;59.320;18.042;2023-05-23T04:19:12;101035.66;;;12.60;90.49
25658;BME280;13517;59.320;18.042;2023-05-23T04:21:37;100979.56;;;12.35;90.74
25658;BME280;13517;59.320;18.042;2023-05-23T04:24:03;100999.00;;;12.67;90.74
25658;BME280;13517;59.320;18.042;2023-05-23T04:26:28;101017.59;;;12.87;90.47
25658;BME280;13517;59.320;18.042;2023-05-23T04:28:54;101020.63;;;13.08;89.64
25658;BME280;13517;59.320;18.042;2023-05-23T04:31:20;101035.69;;;13.38;89.05
25658;BME280;13517;59.320;18.042;2023-05-23T04:33:48;101019.94;;;13.43;89.11
25658;BME280;13517;59.320;18.042;2023-05-23T04:36:14;101031.19;;;13.76;88.33
25658;BME280;13517;59.320;18.042;2023-05-23T04:38:40;101032.66;;;13.93;87.32
25658;BME280;13517;59.320;18.042;2023-05-23T04:41:06;101024.25;;;14.09;87.00
25658;BME280;13517;59.320;18.042;2023-05-23T04:43:34;101005.56;;;14.05;85.87
25658;BME280;13517;59.320;18.042;2023-05-23T04:46:02;100999.91;;;14.08;86.54
25658;BME280;13517;59.320;18.042;2023-05-23T04:48:28;101034.13;;;14.35;85.86
25658;BME280;13517;59.320;18.042;2023-05-23T04:50:53;101018.72;;;14.47;85.07
25658;BME280;13517;59.320;18.042;2023-05-23T04:53:23;100993.63;;;14.43;84.09
25658;BME280;13517;59.320;18.042;2023-05-23T04:55:48;100987.72;;;14.49;83.38
25658;BME280;13517;59.320;18.042;2023-05-23T04:58:14;100957.28;;;14.33;83.49
25658;BME280;13517;59.320;18.042;2023-05-23T05:00:39;100961.53;;;14.48;81.95
25658;BME280;13517;59.320;18.042;2023-05-23T05:03:05;100995.84;;;14.74;81.79
25658;BME280;13517;59.320;18.042;2023-05-23T05:05:30;100996.50;;;14.89;81.07
25658;BME280;13517;59.320;18.042;2023-05-23T05:07:55;100957.44;;;14.90;80.35
25658;BME280;13517;59.320;18.042;2023-05-23T05:10:21;100988.00;;;15.16;79.17
25658;BME280;13517;59.320;18.042;2023-05-23T05:12:47;100996.78;;;15.31;77.74
25658;BME280;13517;59.320;18.042;2023-05-23T05:15:15;100921.31;;;14.99;77.38
25658;BME280;13517;59.320;18.042;2023-05-23T05:17:41;100937.41;;;15.25;77.33
25658;BME280;13517;59.320;18.042;2023-05-23T05:20:07;100986.88;;;15.53;76.85
25658;BME280;13517;59.320;18.042;2023-05-23T05:22:35;100980.31;;;15.44;76.26
25658;BME280;13517;59.320;18.042;2023-05-23T05:25:01;100955.97;;;15.31;75.77
25658;BME280;13517;59.320;18.042;2023-05-23T05:27:27;100962.75;;;15.37;75.37
25658;BME280;13517;59.320;18.042;2023-05-23T05:29:53;100953.69;;;15.36;74.09
25658;BME280;13517;59.320;18.042;2023-05-23T05:32:21;100942.09;;;15.34;72.98
25658;BME280;13517;59.320;18.042;2023-05-23T05:34:46;100979.53;;;15.65;72.13
25658;BME280;13517;59.320;18.042;2023-05-23T05:37:12;100944.28;;;15.52;71.28
25658;BME280;13517;59.320;18.042;2023-05-23T05:39:38;100957.38;;;15.70;70.15
25658;BME280;13517;59.320;18.042;2023-05-23T05:42:03;100926.69;;;15.56;69.67
25658;BME280;13517;59.320;18.042;2023-05-23T05:44:29;100941.47;;;15.86;68.94
25658;BME280;13517;59.320;18.042;2023-05-23T05:46:55;100937.75;;;15.99;68.20
25658;BME280;13517;59.320;18.042;2023-05-23T05:49:20;100933.78;;;16.03;67.22
25658;BME280;13517;59.320;18.042;2023-05-23T05:51:46;100981.69;;;16.38;67.14
25658;BME280;13517;59.320;18.042;2023-05-23T05:54:12;100956.31;;;16.26;66.60
25658;BME280;13517;59.320;18.042;2023-05-23T05:56:38;100936.03;;;16.19;66.42
25658;BME280;13517;59.320;18.042;2023-05-23T05:59:03;100936.19;;;16.17;65.92
25658;BME280;13517;59.320;18.042;2023-05-23T06:01:28;100974.84;;;16.44;65.35
25658;BME280;13517;59.320;18.042;2023-05-23T06:03:55;100959.88;;;16.38;64.81
25658;BME280;13517;59.320;18.042;2023-05-23T06:06:20;100942.16;;;16.32;64.77
25658;BME280;13517;59.320;18.042;2023-05-23T06:08:46;100927.50;;;16.24;64.17
25658;BME280;13517;59.320;18.042;2023-05-23T06:11:12;100927.94;;;16.29;63.66
25658;BME280;13517;59.320;18.042;2023-05-23T06:13:37;100933.47;;;16.39;63.07
25658;BME280;13517;59.320;18.042;2023-05-23T06:16:03;100953.81;;;16.56;62.85
25658;BME280;13517;59.320;18.042;2023-05-23T06:18:28;100928.16;;;16.37;62.49
25658;BME280;13517;59.320;18.042;2023-05-23T06:20:54;100952.41;;;16.61;62.81
25658;BME280;13517;59.320;18.042;2023-05-23T06:23:20;100939.88;;;16.49;62.19
25658;BME280;13517;59.320;18.042;2023-05-23T06:25:45;100896.28;;;16.38;61.81
25658;BME280;13517;59.320;18.042;2023-05-23T06:28:11;100928.56;;;16.54;61.71
25658;BME280;13517;59.320;18.042;2023-05-23T06:30:36;100964.13;;;16.73;61.82
25658;BME280;13517;59.320;18.042;2023-05-23T06:33:03;100943.56;;;16.69;61.23
25658;BME280;13517;59.320;18.042;2023-05-23T06:35:28;100883.78;;;16.35;61.06
25658;BME280;13517;59.320;18.042;2023-05-23T06:37:54;100953.28;;;16.83;61.29
25658;BME280;13517;59.320;18.042;2023-05-23T06:40:20;100955.59;;;16.88;61.35
25658;BME280;13517;59.320;18.042;2023-05-23T06:42:45;100910.13;;;16.67;61.39
25658;BME280;13517;59.320;18.042;2023-05-23T06:45:11;100949.72;;;16.93;60.92
25658;BME280;13517;59.320;18.042;2023-05-23T06:47:37;100934.38;;;16.92;60.72
25658;BME280;13517;59.320;18.042;2023-05-23T06:50:03;100932.06;;;16.87;60.66
25658;BME280;13517;59.320;18.042;2023-05-23T06:52:28;100904.56;;;16.79;60.48
25658;BME280;13517;59.320;18.042;2023-05-23T06:54:53;100940.78;;;17.12;59.22
25658;BME280;13517;59.320;18.042;2023-05-23T06:57:19;100956.38;;;17.31;58.20
25658;BME280;13517;59.320;18.042;2023-05-23T06:59:45;100924.88;;;17.17;57.45
25658;BME280;13517;59.320;18.042;2023-05-23T07:02:10;100966.19;;;17.43;56.22
25658;BME280;13517;59.320;18.042;2023-05-23T07:04:36;100918.28;;;17.20;55.89
25658;BME280;13517;59.320;18.042;2023-05-23T07:07:01;100919.88;;;17.22;55.91
25658;BME280;13517;59.320;18.042;2023-05-23T07:09:27;100965.09;;;17.56;55.31
25658;BME280;13517;59.320;18.042;2023-05-23T07:11:52;100956.44;;;17.51;54.39
25658;BME280;13517;59.320;18.042;2023-05-23T07:14:17;100964.94;;;17.58;54.31
25658;BME280;13517;59.320;18.042;2023-05-23T07:16:44;100966.13;;;17.65;54.27
25658;BME280;13517;59.320;18.042;2023-05-23T07:19:11;100913.44;;;17.43;53.74
25658;BME280;13517;59.320;18.042;2023-05-23T07:21:36;100929.00;;;17.52;53.14
25658;BME280;13517;59.320;18.042;2023-05-23T07:24:02;100885.97;;;17.35;53.18
25658;BME280;13517;59.320;18.042;2023-05-23T07:26:27;100921.69;;;17.63;52.92
25658;BME280;13517;59.320;18.042;2023-05-23T07:28:53;100936.94;;;17.75;52.62
25658;BME280;13517;59.320;18.042;2023-05-23T07:31:18;100943.56;;;17.82;51.62
25658;BME280;13517;59.320;18.042;2023-05-23T07:33:44;100923.72;;;17.80;51.25
25658;BME280;13517;59.320;18.042;2023-05-23T07:36:10;100915.38;;;17.82;50.68
25658;BME280;13517;59.320;18.042;2023-05-23T07:38:35;100891.50;;;17.74;50.58
25658;BME280;13517;59.320;18.042;2023-05-23T07:41:01;100928.81;;;18.05;50.44
25658;BME280;13517;59.320;18.042;2023-05-23T07:43:26;100923.63;;;18.12;50.20
25658;BME280;13517;59.320;18.042;2023-05-23T07:45:51;100944.78;;;18.29;50.67
25658;BME280;13517;59.320;18.042;2023-05-23T07:48:17;100945.91;;;18.36;50.59
25658;BME280;13517;59.320;18.042;2023-05-23T07:50:42;100924.75;;;18.29;51.38
25658;BME280;13517;59.320;18.042;2023-05-23T07:53:08;100876.44;;;18.09;51.16
25658;BME280;13517;59.320;18.042;2023-05-23T07:55:33;100912.78;;;18.40;51.35
25658;BME280;13517;59.320;18.042;2023-05-23T07:57:59;100944.56;;;18.60;51.19
25658;BME280;13517;59.320;18.042;2023-05-23T08:00:24;100908.59;;;18.45;50.69
25658;BME280;13517;59.320;18.042;2023-05-23T08:02:49;100940.09;;;18.69;50.22
25658;BME280;13517;59.320;18.042;2023-05-23T08:05:15;100897.53;;;18.47;49.30
25658;BME280;13517;59.320;18.042;2023-05-23T08:07:40;100918.94;;;18.61;48.50
25658;BME280;13517;59.320;18.042;2023-05-23T08:10:06;100936.88;;;18.84;47.88
25658;BME280;13517;59.320;18.042;2023-05-23T08:12:32;100891.00;;;18.58;47.95
25658;BME280;13517;59.320;18.042;2023-05-23T08:14:58;100905.69;;;18.67;47.21
25658;BME280;13517;59.320;18.042;2023-05-23T08:17:23;100932.41;;;18.92;46.95
25658;BME280;13517;59.320;18.042;2023-05-23T08:19:48;100906.50;;;18.77;46.58
25658;BME280;13517;59.320;18.042;2023-05-23T08:22:14;100926.66;;;18.86;46.20
25658;BME280;13517;59.320;18.042;2023-05-23T08:24:39;100834.94;;;18.34;46.10
25658;BME280;13517;59.320;18.042;2023-05-23T08:27:05;100925.34;;;18.90;45.43
25658;BME280;13517;59.320;18.042;2023-05-23T08:29:32;100907.94;;;18.81;45.71
25658;BME280;13517;59.320;18.042;2023-05-23T08:31:59;100944.47;;;19.00;45.29
25658;BME280;13517;59.320;18.042;2023-05-23T08:34:24;100887.81;;;18.62;45.00
25658;BME280;13517;59.320;18.042;2023-05-23T08:36:50;100925.06;;;18.83;45.00
25658;BME280;13517;59.320;18.042;2023-05-23T08:39:16;100940.75;;;18.91;44.66
25658;BME280;13517;59.320;18.042;2023-05-23T08:41:42;100909.09;;;18.78;44.13
25658;BME280;13517;59.320;18.042;2023-05-23T08:44:08;100888.69;;;18.63;43.93
25658;BME280;13517;59.320;18.042;2023-05-23T08:46:38;100894.03;;;18.64;43.71
25658;BME280;13517;59.320;18.042;2023-05-23T08:49:06;100915.44;;;18.79;43.64
25658;BME280;13517;59.320;18.042;2023-05-23T08:51:33;100913.09;;;18.84;43.50
25658;BME280;13517;59.320;18.042;2023-05-23T08:54:01;100931.66;;;18.90;43.23
25658;BME280;13517;59.320;18.042;2023-05-23T08:56:26;100913.09;;;18.84;42.56
25658;BME280;13517;59.320;18.042;2023-05-23T08:58:52;100935.53;;;18.98;42.49
25658;BME280;13517;59.320;18.042;2023-05-23T09:01:19;100934.13;;;19.03;42.48
25658;BME280;13517;59.320;18.042;2023-05-23T09:03:44;100902.44;;;18.91;42.32
25658;BME280;13517;59.320;18.042;2023-05-23T09:06:10;100899.84;;;18.89;42.03
25658;BME280;13517;59.320;18.042;2023-05-23T09:08:36;100919.97;;;18.98;41.90
25658;BME280;13517;59.320;18.042;2023-05-23T09:11:02;100918.97;;;19.09;41.73
25658;BME280;13517;59.320;18.042;2023-05-23T09:13:32;100920.81;;;19.09;41.63
25658;BME280;13517;59.320;18.042;2023-05-23T09:18:43;100926.41;;;19.17;41.39
25658;BME280;13517;59.320;18.042;2023-05-23T09:21:10;100917.59;;;19.23;41.71
25658;BME280;13517;59.320;18.042;2023-05-23T09:23:37;100915.72;;;19.24;41.39
25658;BME280;13517;59.320;18.042;2023-05-23T09:26:07;100924.94;;;19.23;41.24
25658;BME280;13517;59.320;18.042;2023-05-23T09:28:34;100919.34;;;19.24;41.43
25658;BME280;13517;59.320;18.042;2023-05-23T09:31:05;100917.59;;;19.23;41.39
25658;BME280;13517;59.320;18.042;2023-05-23T09:33:48;100922.78;;;19.26;41.12
25658;BME280;13517;59.320;18.042;2023-05-23T09:36:15;100922.78;;;19.26;41.42
25658;BME280;13517;59.320;18.042;2023-05-23T09:38:42;100916.75;;;19.23;41.68
25658;BME280;13517;59.320;18.042;2023-05-23T09:41:09;100923.00;;;19.33;41.54
25658;BME280;13517;59.320;18.042;2023-05-23T09:43:38;100896.22;;;19.27;41.78
25658;BME280;13517;59.320;18.042;2023-05-23T09:46:09;100895.38;;;19.26;41.80
25658;BME280;13517;59.320;18.042;2023-05-23T09:48:35;100848.22;;;19.04;41.66
25658;BME280;13517;59.320;18.042;2023-05-23T09:51:05;100935.03;;;19.50;40.77
25658;BME280;13517;59.320;18.042;2023-05-23T09:53:30;100920.50;;;19.50;40.31
25658;BME280;13517;59.320;18.042;2023-05-23T09:55:58;100917.97;;;19.56;40.06
25658;BME280;13517;59.320;18.042;2023-05-23T09:58:26;100886.38;;;19.34;39.81
25658;BME280;13517;59.320;18.042;2023-05-23T10:00:52;100892.91;;;19.51;39.68
25658;BME280;13517;59.320;18.042;2023-05-23T10:05:59;100917.59;;;19.69;39.10
25658;BME280;13517;59.320;18.042;2023-05-23T10:08:42;100929.28;;;19.71;37.97
25658;BME280;13517;59.320;18.042;2023-05-23T10:14:01;100896.75;;;19.58;37.74
25658;BME280;13517;59.320;18.042;2023-05-23T10:22:13;100914.63;;;19.81;36.43
25658;BME280;13517;59.320;18.042;2023-05-23T10:24:40;100883.00;;;19.68;36.20
25658;BME280;13517;59.320;18.042;2023-05-23T10:27:06;100911.75;;;19.82;36.26
25658;BME280;13517;59.320;18.042;2023-05-23T10:29:32;100900.22;;;19.79;36.38
25658;BME280;13517;59.320;18.042;2023-05-23T10:32:01;100920.59;;;19.94;36.47
25658;BME280;13517;59.320;18.042;2023-05-23T10:37:34;100911.22;;;19.97;37.39
25658;BME280;13517;59.320;18.042;2023-05-23T10:40:14;100913.91;;;20.07;37.42
25658;BME280;13517;59.320;18.042;2023-05-23T10:45:21;100909.16;;;20.17;37.80
25658;BME280;13517;59.320;18.042;2023-05-23T10:47:48;100867.50;;;19.95;38.13
25658;BME280;13517;59.320;18.042;2023-05-23T10:50:28;100855.09;;;19.91;38.22
25658;BME280;13517;59.320;18.042;2023-05-23T10:53:01;100907.13;;;20.19;38.15
25658;BME280;13517;59.320;18.042;2023-05-23T10:55:31;100913.00;;;20.24;38.07
25658;BME280;13517;59.320;18.042;2023-05-23T10:58:11;100898.19;;;20.17;37.77
25658;BME280;13517;59.320;18.042;2023-05-23T11:00:37;100923.41;;;20.39;37.65
25658;BME280;13517;59.320;18.042;2023-05-23T11:03:04;100917.75;;;20.40;36.89
25658;BME280;13517;59.320;18.042;2023-05-23T11:05:33;100908.75;;;20.30;37.05
25658;BME280;13517;59.320;18.042;2023-05-23T11:11:01;100925.22;;;20.30;35.18
25658;BME280;13517;59.320;18.042;2023-05-23T11:16:31;100932.31;;;20.41;34.92
25658;BME280;13517;59.320;18.042;2023-05-23T11:21:45;100918.94;;;20.38;35.07
25658;BME280;13517;59.320;18.042;2023-05-23T11:24:10;100904.06;;;20.22;35.09
25658;BME280;13517;59.320;18.042;2023-05-23T11:26:36;100930.25;;;20.35;34.93
25658;BME280;13517;59.320;18.042;2023-05-23T11:29:02;100896.09;;;20.11;34.54
25658;BME280;13517;59.320;18.042;2023-05-23T11:31:36;100920.94;;;20.27;34.61
25658;BME280;13517;59.320;18.042;2023-05-23T11:34:02;100941.44;;;20.41;34.37
25658;BME280;13517;59.320;18.042;2023-05-23T11:36:27;100926.63;;;20.34;34.45
25658;BME280;13517;59.320;18.042;2023-05-23T11:38:54;100904.06;;;20.22;34.64
25658;BME280;13517;59.320;18.042;2023-05-23T11:41:19;100881.75;;;20.17;34.91
25658;BME280;13517;59.320;18.042;2023-05-23T11:43:51;100881.75;;;20.17;34.58
25658;BME280;13517;59.320;18.042;2023-05-23T11:46:18;100934.81;;;20.52;34.49
25658;BME280;13517;59.320;18.042;2023-05-23T11:48:47;100917.44;;;20.44;34.47
25658;BME280;13517;59.320;18.042;2023-05-23T11:51:14;100928.50;;;20.52;34.13
25658;BME280;13517;59.320;18.042;2023-05-23T11:53:40;100919.88;;;20.47;34.41
25658;BME280;13517;59.320;18.042;2023-05-23T11:56:06;100927.28;;;20.54;34.35
25658;BME280;13517;59.320;18.042;2023-05-23T11:58:36;100882.81;;;20.24;34.01
25658;BME280;13517;59.320;18.042;2023-05-23T12:01:06;100923.00;;;20.52;33.77
25658;BME280;13517;59.320;18.042;2023-05-23T12:03:54;100909.72;;;20.47;33.62
25658;BME280;13517;59.320;18.042;2023-05-23T12:06:19;100893.22;;;20.39;33.95
25658;BME280;13517;59.320;18.042;2023-05-23T12:08:46;100890.81;;;20.36;33.87
25658;BME280;13517;59.320;18.042;2023-05-23T12:11:12;100908.75;;;20.48;33.92
25658;BME280;13517;59.320;18.042;2023-05-23T12:13:40;100890.00;;;20.44;34.00
25658;BME280;13517;59.320;18.042;2023-05-23T12:16:06;100919.13;;;20.63;33.55
25658;BME280;13517;59.320;18.042;2023-05-23T12:18:32;100908.25;;;20.53;34.28
25658;BME280;13517;59.320;18.042;2023-05-23T12:21:01;100899.25;;;20.42;33.83
25658;BME280;13517;59.320;18.042;2023-05-23T12:23:28;100859.50;;;20.20;34.10
25658;BME280;13517;59.320;18.042;2023-05-23T12:25:55;100909.47;;;20.59;34.03
25658;BME280;13517;59.320;18.042;2023-05-23T12:28:42;100903.41;;;20.47;34.01
25658;BME280;13517;59.320;18.042;2023-05-23T12:31:14;100917.22;;;20.63;33.99
25658;BME280;13517;59.320;18.042;2023-05-23T12:33:41;100895.03;;;20.48;33.77
25658;BME280;13517;59.320;18.042;2023-05-23T12:36:11;100923.19;;;20.59;34.27
25658;BME280;13517;59.320;18.042;2023-05-23T12:38:36;100929.88;;;20.56;34.24
25658;BME280;13517;59.320;18.042;2023-05-23T12:41:11;100923.84;;;20.52;34.34
25658;BME280;13517;59.320;18.042;2023-05-23T12:43:39;100927.03;;;20.66;33.98
25658;BME280;13517;59.320;18.042;2023-05-23T12:46:06;100889.00;;;20.45;33.88
25658;BME280;13517;59.320;18.042;2023-05-23T12:48:32;100903.59;;;20.53;33.99
25658;BME280;13517;59.320;18.042;2023-05-23T12:50:58;100885.91;;;20.48;33.60
25658;BME280;13517;59.320;18.042;2023-05-23T12:53:25;100894.69;;;20.51;33.87
25658;BME280;13517;59.320;18.042;2023-05-23T12:55:51;100917.56;;;20.60;33.98
25658;BME280;13517;59.320;18.042;2023-05-23T12:58:16;100908.75;;;20.48;33.88
25658;BME280;13517;59.320;18.042;2023-05-23T13:00:42;100895.66;;;20.42;33.95
25658;BME280;13517;59.320;18.042;2023-05-23T13:03:08;100900.50;;;20.48;33.99
25658;BME280;13517;59.320;18.042;2023-05-23T13:05:33;100919.97;;;20.63;33.98
25658;BME280;13517;59.320;18.042;2023-05-23T13:07:59;100874.34;;;20.36;34.09
25658;BME280;13517;59.320;18.042;2023-05-23T13:10:24;100882.88;;;20.33;34.16
25658;BME280;13517;59.320;18.042;2023-05-23T13:12:49;100826.25;;;19.97;34.13